createdAt,value
2023-05-18T00:02:07.178Z,0.93
2023-05-18T00:04:36.437Z,0.80
2023-05-18T00:07:05.547Z,0.98
2023-05-18T00:09:36.561Z,0.77
2023-05-18T00:12:06.284Z,0.60
2023-05-18T00:14:34.444Z,0.60
2023-05-18T00:17:03.391Z,0.65
2023-05-18T00:19:31.754Z,0.57
2023-05-18T00:22:02.473Z,0.60
2023-05-18T00:24:30.924Z,0.30
2023-05-18T00:26:59.280Z,0.32
2023-05-18T00:29:28.221Z,0.35
2023-05-18T00:31:56.683Z,0.50
2023-05-18T00:34:24.748Z,0.40
2023-05-18T00:36:53.347Z,0.70
2023-05-18T00:39:21.351Z,0.50
2023-05-18T00:41:49.780Z,0.38
2023-05-18T00:44:17.795Z,0.43
2023-05-18T00:46:46.104Z,0.35
2023-05-18T00:49:14.478Z,0.47
2023-05-18T00:51:43.370Z,0.40
2023-05-18T00:54:11.715Z,0.52
2023-05-18T00:56:46.509Z,0.55
2023-05-18T00:59:15.760Z,0.75
2023-05-18T01:01:45.056Z,0.50
2023-05-18T01:04:16.295Z,0.40
2023-05-18T01:06:46.730Z,0.60
2023-05-18T01:09:16.584Z,0.50
2023-05-18T01:11:57.378Z,0.38
2023-05-18T01:14:33.505Z,0.30
2023-05-18T01:17:36.616Z,0.60
2023-05-18T01:20:20.960Z,0.55
2023-05-18T01:23:12.177Z,0.55
2023-05-18T01:25:55.731Z,0.52
2023-05-18T01:31:00.159Z,0.47
2023-05-18T01:33:28.570Z,0.75
2023-05-18T01:35:56.657Z,0.55
2023-05-18T01:38:28.857Z,0.70
2023-05-18T01:41:02.498Z,0.65
2023-05-18T01:43:35.187Z,0.40
2023-05-18T01:46:23.402Z,0.45
2023-05-18T01:49:00.681Z,0.40
2023-05-18T01:51:34.368Z,0.80
2023-05-18T01:54:08.411Z,0.50
2023-05-18T01:56:41.334Z,0.60
2023-05-18T01:59:11.465Z,0.60
2023-05-18T02:01:39.603Z,0.52
2023-05-18T02:04:11.281Z,0.70
2023-05-18T02:06:39.738Z,0.40
2023-05-18T02:09:10.330Z,0.80
2023-05-18T02:11:38.909Z,0.68
2023-05-18T02:14:07.381Z,0.75
2023-05-18T02:16:35.386Z,0.60
2023-05-18T02:19:03.811Z,0.65
2023-05-18T02:21:34.865Z,0.77
2023-05-18T02:24:05.115Z,0.47
2023-05-18T02:26:33.122Z,1.02
2023-05-18T02:29:01.624Z,0.75
2023-05-18T02:31:31.313Z,0.50
2023-05-18T02:34:03.009Z,0.50
2023-05-18T02:36:43.011Z,0.45
2023-05-18T02:39:11.422Z,0.60
2023-05-18T02:41:39.467Z,0.57
2023-05-18T02:44:07.880Z,0.68
2023-05-18T02:46:35.864Z,0.70
2023-05-18T02:49:04.487Z,0.90
2023-05-18T02:51:32.721Z,0.80
2023-05-18T02:54:02.269Z,0.70
2023-05-18T02:56:33.123Z,0.40
2023-05-18T02:59:11.882Z,0.95
2023-05-18T03:01:43.485Z,1.33
2023-05-18T03:04:14.252Z,0.70
2023-05-18T03:06:53.188Z,0.35
2023-05-18T03:09:23.824Z,0.40
2023-05-18T03:11:54.889Z,0.60
2023-05-18T03:14:23.364Z,0.50
2023-05-18T03:16:54.641Z,0.43
2023-05-18T03:19:27.340Z,0.52
2023-05-18T03:21:55.577Z,1.15
2023-05-18T03:24:26.766Z,0.68
2023-05-18T03:26:55.396Z,1.00
2023-05-18T03:29:24.457Z,0.57
2023-05-18T03:31:53.568Z,0.63
2023-05-18T03:34:21.935Z,0.75
2023-05-18T03:36:52.847Z,0.63
2023-05-18T03:39:22.029Z,0.88
2023-05-18T03:41:50.082Z,0.57
2023-05-18T03:44:18.799Z,0.70
2023-05-18T03:46:46.976Z,0.63
2023-05-18T03:49:15.437Z,0.63
2023-05-18T03:51:44.410Z,0.60
2023-05-18T03:54:12.821Z,0.70
2023-05-18T03:56:41.271Z,0.82
2023-05-18T03:59:09.637Z,0.50
2023-05-18T04:01:38.445Z,0.70
2023-05-18T04:04:07.797Z,1.10
2023-05-18T04:06:36.118Z,1.08
2023-05-18T04:09:04.623Z,0.90
2023-05-18T04:11:32.713Z,1.15
2023-05-18T04:14:01.301Z,0.70
2023-05-18T04:16:29.412Z,0.90
2023-05-18T04:18:57.861Z,0.82
2023-05-18T04:21:26.104Z,0.60
2023-05-18T04:23:54.398Z,0.70
2023-05-18T04:26:22.399Z,1.15
2023-05-18T04:28:52.767Z,0.95
2023-05-18T04:31:20.714Z,0.90
2023-05-18T04:33:51.530Z,1.10
2023-05-18T04:36:21.301Z,0.68
2023-05-18T04:38:52.038Z,0.70
2023-05-18T04:41:23.341Z,0.73
2023-05-18T04:43:53.987Z,0.80
2023-05-18T04:46:22.529Z,0.82
2023-05-18T04:48:51.170Z,0.90
2023-05-18T04:51:22.797Z,0.80
2023-05-18T04:53:51.688Z,0.90
2023-05-18T04:56:23.258Z,0.73
2023-05-18T04:58:51.757Z,0.80
2023-05-18T05:01:19.740Z,0.75
2023-05-18T05:03:49.917Z,1.25
2023-05-18T05:06:17.859Z,1.60
2023-05-18T05:08:46.210Z,0.90
2023-05-18T05:11:14.115Z,0.55
2023-05-18T05:13:42.414Z,1.20
2023-05-18T05:16:11.383Z,0.50
2023-05-18T05:18:39.680Z,0.93
2023-05-18T05:21:09.277Z,1.00
2023-05-18T05:23:37.505Z,1.00
2023-05-18T05:26:05.589Z,0.75
2023-05-18T05:28:33.845Z,1.05
2023-05-18T05:31:01.832Z,0.90
2023-05-18T05:33:31.538Z,0.90
2023-05-18T05:35:59.439Z,0.80
2023-05-18T05:38:27.667Z,0.88
2023-05-18T05:40:56.335Z,0.80
2023-05-18T05:43:24.892Z,1.30
2023-05-18T05:45:52.916Z,1.13
2023-05-18T05:48:21.521Z,1.10
2023-05-18T05:50:49.662Z,1.25
2023-05-18T05:53:20.001Z,1.17
2023-05-18T05:55:49.950Z,1.10
2023-05-18T05:58:19.666Z,1.30
2023-05-18T06:00:52.523Z,0.90
2023-05-18T06:03:22.111Z,0.80
2023-05-18T06:05:50.827Z,1.67
2023-05-18T06:08:24.380Z,0.90
2023-05-18T06:10:55.930Z,0.88
2023-05-18T06:13:26.191Z,0.97
2023-05-18T06:15:58.805Z,0.73
2023-05-18T06:18:27.480Z,0.82
2023-05-18T06:21:01.503Z,0.90
2023-05-18T06:23:30.330Z,0.93
2023-05-18T06:26:04.418Z,1.05
2023-05-18T06:28:51.334Z,0.85
2023-05-18T06:31:30.716Z,1.20
2023-05-18T06:34:34.423Z,0.95
2023-05-18T06:37:02.476Z,0.77
2023-05-18T06:39:31.054Z,0.90
2023-05-18T06:41:59.487Z,0.70
2023-05-18T06:44:35.373Z,1.05
2023-05-18T06:47:08.706Z,0.77
2023-05-18T06:49:37.279Z,1.10
2023-05-18T06:52:06.218Z,0.73
2023-05-18T06:54:34.874Z,1.25
2023-05-18T06:57:03.001Z,0.88
2023-05-18T06:59:32.524Z,0.70
2023-05-18T07:02:00.688Z,0.60
2023-05-18T07:04:29.051Z,0.70
2023-05-18T07:06:57.016Z,0.73
2023-05-18T07:09:26.166Z,0.38
2023-05-18T07:11:54.273Z,0.90
2023-05-18T07:14:22.646Z,0.70
2023-05-18T07:16:50.692Z,1.00
2023-05-18T07:19:18.993Z,0.75
2023-05-18T07:21:47.005Z,1.15
2023-05-18T07:24:15.295Z,0.80
2023-05-18T07:26:43.298Z,0.88
2023-05-18T07:29:11.956Z,0.65
2023-05-18T07:31:41.537Z,0.60
2023-05-18T07:34:09.850Z,0.80
2023-05-18T07:36:37.865Z,0.70
2023-05-18T07:39:06.285Z,0.88
2023-05-18T07:41:34.313Z,0.80
2023-05-18T07:44:02.616Z,0.77
2023-05-18T07:46:30.788Z,0.90
2023-05-18T07:48:59.136Z,0.85
2023-05-18T07:51:27.019Z,0.95
2023-05-18T07:53:55.382Z,0.80
2023-05-18T07:56:24.346Z,1.15
2023-05-18T07:58:52.868Z,0.70
2023-05-18T08:01:22.629Z,0.60
2023-05-18T08:03:51.494Z,0.82
2023-05-18T08:06:19.608Z,1.05
2023-05-18T08:08:47.981Z,0.65
2023-05-18T08:11:16.349Z,0.60
2023-05-18T08:13:44.746Z,0.90
2023-05-18T08:16:12.778Z,0.60
2023-05-18T08:18:41.374Z,0.70
2023-05-18T08:21:10.303Z,0.90
2023-05-18T08:23:39.289Z,0.80
2023-05-18T08:26:10.078Z,0.93
2023-05-18T08:28:39.771Z,0.85
2023-05-18T08:31:08.157Z,1.10
2023-05-18T08:33:36.465Z,1.10
2023-05-18T08:36:04.909Z,1.17
2023-05-18T08:38:33.441Z,0.73
2023-05-18T08:41:23.801Z,0.95
2023-05-18T08:44:01.502Z,1.15
2023-05-18T08:46:51.312Z,1.90
2023-05-18T08:49:22.061Z,1.38
2023-05-18T08:51:59.461Z,1.20
2023-05-18T08:54:28.488Z,1.00
2023-05-18T08:56:57.501Z,1.10
2023-05-18T08:59:28.006Z,0.77
2023-05-18T09:01:56.343Z,0.82
2023-05-18T09:04:25.088Z,0.85
2023-05-18T09:06:55.009Z,1.10
2023-05-18T09:09:25.506Z,1.13
2023-05-18T09:11:56.053Z,0.85
2023-05-18T09:14:26.314Z,1.10
2023-05-18T09:16:54.859Z,0.80
2023-05-18T09:19:25.044Z,0.88
2023-05-18T09:21:53.132Z,1.08
2023-05-18T09:24:24.390Z,1.58
2023-05-18T09:26:53.473Z,0.80
2023-05-18T09:29:24.439Z,0.90
2023-05-18T09:31:54.685Z,0.90
2023-05-18T09:34:24.813Z,0.88
2023-05-18T09:36:57.995Z,0.90
2023-05-18T09:41:58.092Z,1.30
2023-05-18T09:44:33.049Z,1.15
2023-05-18T09:47:02.638Z,1.10
2023-05-18T09:49:31.693Z,1.25
2023-05-18T09:52:02.807Z,0.80
2023-05-18T09:54:31.174Z,1.02
2023-05-18T09:57:10.331Z,0.80
2023-05-18T09:59:40.780Z,1.15
2023-05-18T10:02:13.399Z,0.85
2023-05-18T10:04:43.585Z,1.13
2023-05-18T10:07:16.661Z,0.70
2023-05-18T10:09:46.478Z,1.25
2023-05-18T10:12:17.446Z,0.85
2023-05-18T10:14:46.843Z,1.17
2023-05-18T10:17:17.321Z,1.48
2023-05-18T10:19:47.221Z,0.98
2023-05-18T10:22:18.457Z,0.80
2023-05-18T10:24:52.727Z,1.17
2023-05-18T10:27:27.783Z,1.30
2023-05-18T10:29:59.515Z,1.08
2023-05-18T10:32:29.839Z,1.10
2023-05-18T10:35:00.660Z,1.38
2023-05-18T10:37:32.034Z,1.13
2023-05-18T10:40:01.047Z,1.15
2023-05-18T10:42:30.891Z,1.13
2023-05-18T10:45:02.026Z,1.58
2023-05-18T10:47:30.437Z,1.00
2023-05-18T10:50:04.414Z,1.27
2023-05-18T10:52:34.216Z,1.27
2023-05-18T10:55:04.615Z,1.35
2023-05-18T10:57:47.080Z,1.52
2023-05-18T11:00:16.667Z,1.38
2023-05-18T11:02:45.510Z,1.40
2023-05-18T11:05:14.063Z,1.15
2023-05-18T11:07:46.520Z,1.05
2023-05-18T11:10:14.977Z,1.00
2023-05-18T11:12:43.475Z,1.38
2023-05-18T11:15:12.098Z,0.88
2023-05-18T11:17:40.129Z,1.70
2023-05-18T11:20:09.243Z,1.27
2023-05-18T11:23:03.154Z,1.38
2023-05-18T11:25:34.489Z,1.33
2023-05-18T11:28:05.970Z,1.23
2023-05-18T11:30:34.540Z,1.63
2023-05-18T11:33:23.078Z,1.20
2023-05-18T11:35:57.557Z,1.38
2023-05-18T11:38:54.522Z,1.30
2023-05-18T11:41:35.248Z,1.27
2023-05-18T11:44:10.405Z,1.45
2023-05-18T11:46:51.478Z,1.63
2023-05-18T11:49:23.444Z,1.40
2023-05-18T11:52:04.982Z,1.10
2023-05-18T11:54:55.779Z,1.17
2023-05-18T11:57:42.207Z,1.35
2023-05-18T12:00:12.366Z,1.20
2023-05-18T12:02:46.683Z,1.30
2023-05-18T12:05:15.520Z,1.27
2023-05-18T12:07:45.335Z,1.40
2023-05-18T12:10:15.135Z,1.67
2023-05-18T12:12:45.058Z,1.70
2023-05-18T12:15:16.532Z,1.77
2023-05-18T12:17:48.165Z,1.60
2023-05-18T12:20:18.290Z,1.70
2023-05-18T12:22:52.386Z,1.23
2023-05-18T12:25:22.207Z,1.98
2023-05-18T12:27:52.906Z,1.40
2023-05-18T12:30:35.942Z,1.10
2023-05-18T12:33:05.049Z,1.20
2023-05-18T12:35:33.607Z,1.45
2023-05-18T12:38:03.019Z,1.10
2023-05-18T12:40:45.007Z,1.20
2023-05-18T12:43:13.679Z,1.33
2023-05-18T12:45:44.800Z,1.27
2023-05-18T12:48:15.199Z,1.20
2023-05-18T12:50:48.248Z,1.00
2023-05-18T12:53:17.899Z,1.23
2023-05-18T12:55:45.999Z,1.05
2023-05-18T12:58:19.092Z,0.95
2023-05-18T13:00:49.036Z,1.20
2023-05-18T13:03:20.478Z,1.35
2023-05-18T13:06:03.822Z,0.80
2023-05-18T13:11:13.434Z,1.38
2023-05-18T13:13:59.832Z,0.93
2023-05-18T13:16:30.814Z,1.30
2023-05-18T13:19:04.373Z,1.38
2023-05-18T13:21:33.435Z,1.20
2023-05-18T13:24:03.644Z,1.05
2023-05-18T13:26:31.869Z,1.02
2023-05-18T13:29:00.553Z,1.30
2023-05-18T13:31:30.121Z,1.40
2023-05-18T13:33:58.600Z,1.42
2023-05-18T13:36:26.704Z,1.45
2023-05-18T13:38:55.633Z,1.35
2023-05-18T13:41:23.717Z,1.30
2023-05-18T13:43:52.102Z,1.30
2023-05-18T13:46:20.565Z,1.13
2023-05-18T13:48:49.098Z,1.17
2023-05-18T13:51:17.289Z,1.30
2023-05-18T13:53:45.907Z,1.10
2023-05-18T13:56:14.147Z,1.48
2023-05-18T13:58:44.102Z,1.02
2023-05-18T14:01:13.857Z,1.30
2023-05-18T14:03:42.674Z,1.30
2023-05-18T14:06:11.008Z,1.25
2023-05-18T14:08:39.789Z,1.30
2023-05-18T14:11:07.921Z,1.15
2023-05-18T14:13:36.452Z,1.00
2023-05-18T14:16:04.785Z,1.33
2023-05-18T14:18:33.267Z,1.77
2023-05-18T14:21:03.710Z,1.10
2023-05-18T14:23:32.196Z,1.48
2023-05-18T14:26:00.328Z,1.48
2023-05-18T14:28:30.363Z,1.50
2023-05-18T14:30:59.723Z,1.25
2023-05-18T14:33:28.187Z,1.33
2023-05-18T14:35:57.422Z,1.23
2023-05-18T14:38:27.482Z,0.85
2023-05-18T14:40:55.705Z,0.90
2023-05-18T14:43:24.035Z,1.10
2023-05-18T14:46:06.856Z,0.80
2023-05-18T14:48:37.333Z,0.90
2023-05-18T14:51:05.427Z,0.73
2023-05-18T14:53:33.795Z,0.70
2023-05-18T14:56:06.349Z,1.02
2023-05-18T14:58:36.227Z,0.93
2023-05-18T15:01:04.349Z,1.00
2023-05-18T15:03:32.922Z,0.93
2023-05-18T15:06:01.153Z,0.70
2023-05-18T15:08:29.672Z,0.75
2023-05-18T15:10:57.870Z,0.90
2023-05-18T15:13:26.232Z,0.90
2023-05-18T15:15:54.455Z,1.58
2023-05-18T15:18:22.885Z,1.55
2023-05-18T15:20:50.942Z,0.80
2023-05-18T15:23:19.302Z,0.80
2023-05-18T15:25:47.474Z,1.17
2023-05-18T15:28:15.965Z,0.90
2023-05-18T15:30:44.179Z,1.10
2023-05-18T15:33:12.601Z,1.10
2023-05-18T15:35:40.782Z,1.02
2023-05-18T15:38:09.207Z,0.80
2023-05-18T15:40:37.413Z,1.00
2023-05-18T15:43:05.926Z,1.00
2023-05-18T15:45:34.197Z,0.93
2023-05-18T15:48:02.606Z,1.20
2023-05-18T15:50:31.309Z,1.00
2023-05-18T15:52:59.765Z,0.90
2023-05-18T15:55:28.416Z,0.73
2023-05-18T15:57:57.285Z,1.02
2023-05-18T16:00:26.811Z,0.90
2023-05-18T16:02:55.333Z,0.85
2023-05-18T16:05:23.457Z,0.82
2023-05-18T16:07:51.827Z,1.10
2023-05-18T16:10:19.936Z,0.90
2023-05-18T16:12:48.288Z,0.88
2023-05-18T16:15:16.338Z,1.20
2023-05-18T16:17:44.799Z,0.70
2023-05-18T16:20:13.837Z,1.02
2023-05-18T16:22:42.248Z,1.00
2023-05-18T16:25:10.319Z,0.90
2023-05-18T16:27:39.149Z,1.00
2023-05-18T16:30:07.818Z,0.80
2023-05-18T16:32:36.167Z,0.80
2023-05-18T16:35:05.103Z,1.00
2023-05-18T16:37:33.616Z,0.90
2023-05-18T16:40:01.575Z,0.90
2023-05-18T16:42:29.938Z,0.80
2023-05-18T16:44:58.256Z,1.23
2023-05-18T16:47:27.859Z,1.15
2023-05-18T16:49:55.887Z,1.15
2023-05-18T16:52:24.185Z,1.10
2023-05-18T16:54:52.297Z,1.38
2023-05-18T16:57:21.415Z,0.90
2023-05-18T16:59:49.538Z,1.00
2023-05-18T17:02:18.348Z,0.88
2023-05-18T17:04:46.544Z,1.23
2023-05-18T17:07:15.717Z,0.85
2023-05-18T17:09:43.994Z,0.98
2023-05-18T17:12:12.943Z,1.20
2023-05-18T17:14:41.013Z,1.00
2023-05-18T17:17:09.514Z,0.85
2023-05-18T17:19:39.526Z,0.95
2023-05-18T17:22:09.810Z,1.90
2023-05-18T17:24:39.189Z,1.30
2023-05-18T17:27:08.075Z,1.30
2023-05-18T17:29:36.394Z,1.17
2023-05-18T17:32:05.230Z,1.23
2023-05-18T17:34:33.388Z,1.67
2023-05-18T17:37:01.762Z,0.98
2023-05-18T17:39:29.729Z,2.45
2023-05-18T17:42:00.556Z,1.40
2023-05-18T17:44:28.621Z,1.40
2023-05-18T17:46:57.692Z,1.10
2023-05-18T17:49:25.809Z,1.38
2023-05-18T17:51:54.308Z,1.10
2023-05-18T17:54:22.700Z,1.33
2023-05-18T17:56:51.384Z,1.55
2023-05-18T17:59:19.277Z,1.23
2023-05-18T18:01:47.533Z,1.65
2023-05-18T18:04:15.754Z,1.20
2023-05-18T18:06:45.841Z,1.15
2023-05-18T18:09:14.001Z,1.63
2023-05-18T18:11:42.429Z,2.20
2023-05-18T18:14:11.754Z,1.48
2023-05-18T18:16:40.299Z,1.38
2023-05-18T18:19:08.870Z,1.25
2023-05-18T18:21:37.429Z,1.60
2023-05-18T18:24:05.720Z,1.23
2023-05-18T18:26:38.889Z,1.23
2023-05-18T18:29:07.598Z,1.45
2023-05-18T18:31:36.097Z,2.17
2023-05-18T18:34:04.261Z,2.35
2023-05-18T18:36:32.704Z,1.50
2023-05-18T18:39:00.884Z,1.60
2023-05-18T18:41:29.223Z,1.40
2023-05-18T18:43:57.477Z,1.20
2023-05-18T18:46:25.947Z,1.60
2023-05-18T18:48:54.043Z,2.00
2023-05-18T18:51:22.476Z,2.90
2023-05-18T18:53:50.537Z,1.50
2023-05-18T18:56:19.160Z,1.85
2023-05-18T18:58:47.469Z,1.48
2023-05-18T19:01:16.165Z,1.50
2023-05-18T19:03:44.711Z,1.95
2023-05-18T19:06:15.005Z,1.25
2023-05-18T19:08:43.186Z,1.70
2023-05-18T19:11:11.766Z,1.45
2023-05-18T19:13:39.797Z,1.77
2023-05-18T19:16:09.168Z,1.75
2023-05-18T19:18:37.889Z,1.83
2023-05-18T19:21:06.537Z,1.42
2023-05-18T19:23:34.598Z,1.85
2023-05-18T19:26:03.138Z,2.00
2023-05-18T19:28:31.308Z,2.20
2023-05-18T19:30:59.667Z,2.20
2023-05-18T19:33:27.757Z,2.20
2023-05-18T19:35:56.724Z,2.25
2023-05-18T19:38:25.007Z,2.17
2023-05-18T19:40:53.412Z,2.10
2023-05-18T19:43:21.409Z,1.58
2023-05-18T19:45:50.385Z,2.08
2023-05-18T19:48:18.457Z,1.80
2023-05-18T19:50:46.944Z,1.83
2023-05-18T19:53:14.982Z,2.00
2023-05-18T19:55:43.560Z,1.80
2023-05-18T19:58:11.571Z,1.70
2023-05-18T20:00:41.590Z,1.80
2023-05-18T20:03:09.969Z,1.33
2023-05-18T20:05:38.705Z,1.60
2023-05-18T20:08:08.610Z,1.52
2023-05-18T20:10:37.072Z,1.52
2023-05-18T20:13:05.233Z,2.15
2023-05-18T20:15:37.284Z,2.03
2023-05-18T20:18:06.996Z,1.50
2023-05-18T20:20:36.204Z,1.60
2023-05-18T20:23:06.990Z,2.00
2023-05-18T20:25:36.628Z,1.50
2023-05-18T20:28:07.551Z,1.70
2023-05-18T20:30:36.043Z,1.80
2023-05-18T20:33:04.952Z,1.60
2023-05-18T20:35:34.298Z,2.75
2023-05-18T20:38:04.849Z,2.10
2023-05-18T20:40:33.722Z,1.88
2023-05-18T20:43:02.487Z,1.85
2023-05-18T20:45:31.651Z,2.25
2023-05-18T20:48:00.332Z,2.10
2023-05-18T20:50:29.449Z,1.85
2023-05-18T20:52:57.601Z,2.25
2023-05-18T20:55:25.970Z,2.10
2023-05-18T20:57:53.988Z,2.17
2023-05-18T21:00:22.430Z,2.50
2023-05-18T21:02:50.948Z,2.20
2023-05-18T21:05:19.951Z,2.92
2023-05-18T21:07:49.153Z,1.90
2023-05-18T21:10:17.938Z,2.47
2023-05-18T21:12:46.456Z,2.47
2023-05-18T21:15:14.963Z,2.03
2023-05-18T21:17:43.112Z,2.42
2023-05-18T21:20:12.113Z,3.00
2023-05-18T21:22:40.120Z,3.45
2023-05-18T21:25:09.301Z,3.33
2023-05-18T21:27:37.513Z,2.78
2023-05-18T21:30:06.738Z,2.88
2023-05-18T21:32:34.861Z,3.05
2023-05-18T21:35:03.545Z,2.95
2023-05-18T21:37:31.513Z,2.88
2023-05-18T21:40:00.050Z,3.85
2023-05-18T21:42:28.055Z,2.95
2023-05-18T21:44:56.567Z,3.10
2023-05-18T21:47:24.763Z,2.67
2023-05-18T21:49:53.360Z,3.10
2023-05-18T21:52:21.383Z,2.65
2023-05-18T21:54:49.673Z,2.60
2023-05-18T21:57:17.648Z,2.47
2023-05-18T21:59:46.127Z,2.55
2023-05-18T22:02:14.254Z,2.50
2023-05-18T22:04:42.796Z,2.80
2023-05-18T22:07:11.187Z,2.20
2023-05-18T22:09:39.558Z,2.72
2023-05-18T22:12:07.650Z,3.13
2023-05-18T22:14:36.145Z,3.50
2023-05-18T22:17:05.473Z,3.30
2023-05-18T22:19:33.960Z,3.80
2023-05-18T22:22:01.924Z,3.20
2023-05-18T22:24:30.324Z,3.08
2023-05-18T22:26:58.263Z,2.97
2023-05-18T22:29:26.610Z,2.80
2023-05-18T22:31:54.656Z,3.33
2023-05-18T22:34:23.079Z,3.63
2023-05-18T22:36:51.138Z,4.32
2023-05-18T22:39:19.525Z,2.70
2023-05-18T22:41:47.480Z,2.92
2023-05-18T22:44:15.933Z,2.97
2023-05-18T22:46:44.142Z,2.83
2023-05-18T22:49:12.765Z,2.80
2023-05-18T22:51:41.065Z,2.80
2023-05-18T22:54:09.433Z,3.55
2023-05-18T22:56:37.528Z,2.95
2023-05-18T22:59:07.362Z,3.08
2023-05-18T23:01:38.060Z,3.22
2023-05-18T23:04:06.714Z,3.30
2023-05-18T23:06:34.867Z,2.90
2023-05-18T23:09:03.213Z,2.90
2023-05-18T23:11:31.247Z,2.80
2023-05-18T23:14:02.844Z,3.17
2023-05-18T23:16:31.076Z,3.17
2023-05-18T23:19:01.994Z,3.25
2023-05-18T23:21:31.619Z,3.85
2023-05-18T23:23:59.947Z,3.03
2023-05-18T23:26:28.019Z,2.58
2023-05-18T23:28:56.505Z,2.47
2023-05-18T23:31:24.529Z,2.70
2023-05-18T23:33:53.269Z,2.50
2023-05-18T23:36:21.716Z,2.60
2023-05-18T23:38:51.255Z,3.80
2023-05-18T23:41:19.781Z,2.10
2023-05-18T23:43:48.496Z,2.28
2023-05-18T23:46:17.226Z,2.28
2023-05-18T23:48:46.054Z,2.42
2023-05-18T23:51:17.401Z,2.42
2023-05-18T23:53:47.228Z,2.30
2023-05-18T23:56:16.206Z,2.50
2023-05-18T23:58:46.352Z,2.20
